sensor_id;sensor_type;location;lat;lon;timestamp;pressure;altitude;pressure_sealevel;temperature;humidity
61870;BME280;47810;42.264;23.826;2023-05-07T00:00:36;94049.59;;;10.67;72.16
61870;BME280;47810;42.264;23.826;2023-05-07T00:03:21;94057.53;;;10.67;71.94
61870;BME280;47810;42.264;23.826;2023-05-07T00:05:47;94056.84;;;10.78;71.35
61870;BME280;47810;42.264;23.826;2023-05-07T00:08:13;94051.28;;;10.82;70.45
61870;BME280;47810;42.264;23.826;2023-05-07T00:10:38;94056.31;;;10.58;71.57
61870;BME280;47810;42.264;23.826;2023-05-07T00:13:04;94056.78;;;10.36;71.48
61870;BME280;47810;42.264;23.826;2023-05-07T00:15:29;94058.88;;;10.31;72.32
61870;BME280;47810;42.264;23.826;2023-05-07T00:17:55;94052.97;;;10.12;72.96
61870;BME280;47810;42.264;23.826;2023-05-07T00:20:21;94062.56;;;9.98;74.47
61870;BME280;47810;42.264;23.826;2023-05-07T00:22:46;94055.78;;;10.09;74.00
61870;BME280;47810;42.264;23.826;2023-05-07T00:25:12;94056.06;;;10.04;74.14
61870;BME280;47810;42.264;23.826;2023-05-07T00:27:37;94060.50;;;10.03;74.55
61870;BME280;47810;42.264;23.826;2023-05-07T00:30:03;94055.03;;;10.07;74.02
61870;BME280;47810;42.264;23.826;2023-05-07T00:32:28;94056.25;;;10.01;74.76
61870;BME280;47810;42.264;23.826;2023-05-07T00:34:54;94054.19;;;10.06;73.93
61870;BME280;47810;42.264;23.826;2023-05-07T00:37:20;94062.69;;;10.11;73.46
61870;BME280;47810;42.264;23.826;2023-05-07T00:39:46;94071.34;;;9.69;73.98
61870;BME280;47810;42.264;23.826;2023-05-07T00:42:12;94071.38;;;9.83;74.26
61870;BME280;47810;42.264;23.826;2023-05-07T00:44:37;94067.53;;;9.89;73.84
61870;BME280;47810;42.264;23.826;2023-05-07T00:47:03;94071.94;;;9.88;73.39
61870;BME280;47810;42.264;23.826;2023-05-07T00:49:34;94072.47;;;9.79;73.96
61870;BME280;47810;42.264;23.826;2023-05-07T00:52:02;94081.94;;;9.97;72.77
61870;BME280;47810;42.264;23.826;2023-05-07T00:54:28;94077.88;;;9.92;73.00
61870;BME280;47810;42.264;23.826;2023-05-07T00:56:54;94078.16;;;9.73;73.61
61870;BME280;47810;42.264;23.826;2023-05-07T00:59:20;94082.53;;;9.72;73.80
61870;BME280;47810;42.264;23.826;2023-05-07T01:01:45;94085.81;;;9.62;74.33
61870;BME280;47810;42.264;23.826;2023-05-07T01:04:11;94082.94;;;9.66;74.34
61870;BME280;47810;42.264;23.826;2023-05-07T01:06:36;94087.19;;;9.53;74.25
61870;BME280;47810;42.264;23.826;2023-05-07T01:09:02;94089.78;;;9.23;76.06
61870;BME280;47810;42.264;23.826;2023-05-07T01:11:29;94098.63;;;9.38;76.05
61870;BME280;47810;42.264;23.826;2023-05-07T01:13:55;94091.97;;;9.46;75.96
61870;BME280;47810;42.264;23.826;2023-05-07T01:16:21;94102.97;;;9.69;74.10
61870;BME280;47810;42.264;23.826;2023-05-07T01:18:47;94097.91;;;9.50;75.03
61870;BME280;47810;42.264;23.826;2023-05-07T01:21:14;94102.03;;;9.24;75.56
61870;BME280;47810;42.264;23.826;2023-05-07T01:23:41;94096.94;;;8.89;76.53
61870;BME280;47810;42.264;23.826;2023-05-07T01:26:06;94093.03;;;8.96;76.96
61870;BME280;47810;42.264;23.826;2023-05-07T01:28:32;94094.41;;;9.03;77.35
61870;BME280;47810;42.264;23.826;2023-05-07T01:31:00;94095.41;;;9.17;77.81
61870;BME280;47810;42.264;23.826;2023-05-07T01:33:26;94095.25;;;9.20;77.72
61870;BME280;47810;42.264;23.826;2023-05-07T01:35:54;94097.25;;;9.30;77.70
61870;BME280;47810;42.264;23.826;2023-05-07T01:38:21;94092.66;;;9.34;76.99
61870;BME280;47810;42.264;23.826;2023-05-07T01:40:47;94087.22;;;9.37;77.24
61870;BME280;47810;42.264;23.826;2023-05-07T01:43:12;94088.94;;;9.38;76.68
61870;BME280;47810;42.264;23.826;2023-05-07T01:45:38;94095.16;;;8.90;77.67
61870;BME280;47810;42.264;23.826;2023-05-07T01:48:05;94089.13;;;9.03;76.42
61870;BME280;47810;42.264;23.826;2023-05-07T01:50:31;94097.47;;;8.96;78.06
61870;BME280;47810;42.264;23.826;2023-05-07T01:52:57;94092.72;;;9.02;78.55
61870;BME280;47810;42.264;23.826;2023-05-07T01:55:23;94101.19;;;9.07;77.57
61870;BME280;47810;42.264;23.826;2023-05-07T01:57:48;94098.31;;;9.12;76.96
61870;BME280;47810;42.264;23.826;2023-05-07T02:00:14;94094.91;;;8.94;76.93
61870;BME280;47810;42.264;23.826;2023-05-07T02:02:40;94092.44;;;9.07;76.20
61870;BME280;47810;42.264;23.826;2023-05-07T02:05:05;94096.06;;;8.73;77.11
61870;BME280;47810;42.264;23.826;2023-05-07T02:07:32;94085.38;;;8.76;78.23
61870;BME280;47810;42.264;23.826;2023-05-07T02:09:57;94079.78;;;8.98;76.58
61870;BME280;47810;42.264;23.826;2023-05-07T02:12:23;94080.06;;;8.44;78.24
61870;BME280;47810;42.264;23.826;2023-05-07T02:14:49;94078.56;;;8.56;77.90
61870;BME280;47810;42.264;23.826;2023-05-07T02:17:14;94079.84;;;8.31;78.55
61870;BME280;47810;42.264;23.826;2023-05-07T02:19:41;94067.22;;;8.05;79.65
61870;BME280;47810;42.264;23.826;2023-05-07T02:22:07;94062.31;;;8.14;79.09
61870;BME280;47810;42.264;23.826;2023-05-07T02:24:32;94064.72;;;8.19;78.90
61870;BME280;47810;42.264;23.826;2023-05-07T02:26:58;94061.78;;;8.08;79.24
61870;BME280;47810;42.264;23.826;2023-05-07T02:29:23;94063.31;;;8.12;79.34
61870;BME280;47810;42.264;23.826;2023-05-07T02:31:49;94055.84;;;8.04;79.36
61870;BME280;47810;42.264;23.826;2023-05-07T02:34:19;94053.50;;;7.65;80.90
61870;BME280;47810;42.264;23.826;2023-05-07T02:36:44;94054.47;;;7.80;80.74
61870;BME280;47810;42.264;23.826;2023-05-07T02:39:10;94044.69;;;7.66;80.97
61870;BME280;47810;42.264;23.826;2023-05-07T02:41:36;94045.84;;;7.60;80.80
61870;BME280;47810;42.264;23.826;2023-05-07T02:44:02;94037.38;;;7.55;81.57
61870;BME280;47810;42.264;23.826;2023-05-07T02:46:27;94037.97;;;7.43;82.25
61870;BME280;47810;42.264;23.826;2023-05-07T02:48:53;94031.78;;;7.44;82.21
61870;BME280;47810;42.264;23.826;2023-05-07T02:51:21;94032.56;;;7.46;81.99
61870;BME280;47810;42.264;23.826;2023-05-07T02:53:47;94031.03;;;7.42;81.74
61870;BME280;47810;42.264;23.826;2023-05-07T02:56:13;94033.03;;;7.37;81.77
61870;BME280;47810;42.264;23.826;2023-05-07T02:58:38;94034.88;;;7.35;81.96
61870;BME280;47810;42.264;23.826;2023-05-07T03:01:10;94033.34;;;7.48;81.33
61870;BME280;47810;42.264;23.826;2023-05-07T03:03:35;94031.78;;;7.61;80.07
61870;BME280;47810;42.264;23.826;2023-05-07T03:06:01;94036.41;;;7.74;79.19
61870;BME280;47810;42.264;23.826;2023-05-07T03:08:26;94038.13;;;7.75;78.83
61870;BME280;47810;42.264;23.826;2023-05-07T03:10:52;94031.34;;;7.86;78.88
61870;BME280;47810;42.264;23.826;2023-05-07T03:13:18;94036.81;;;7.99;78.18
61870;BME280;47810;42.264;23.826;2023-05-07T03:15:43;94041.75;;;8.05;77.89
61870;BME280;47810;42.264;23.826;2023-05-07T03:18:09;94035.28;;;7.95;78.26
61870;BME280;47810;42.264;23.826;2023-05-07T03:20:34;94046.00;;;8.08;77.45
61870;BME280;47810;42.264;23.826;2023-05-07T03:23:01;94034.66;;;8.07;78.21
61870;BME280;47810;42.264;23.826;2023-05-07T03:25:27;94043.59;;;8.21;78.78
61870;BME280;47810;42.264;23.826;2023-05-07T03:27:52;94047.22;;;8.18;79.35
61870;BME280;47810;42.264;23.826;2023-05-07T03:30:18;94045.28;;;8.22;80.03
61870;BME280;47810;42.264;23.826;2023-05-07T03:32:44;94039.69;;;8.28;79.68
61870;BME280;47810;42.264;23.826;2023-05-07T03:35:09;94045.28;;;8.39;78.30
61870;BME280;47810;42.264;23.826;2023-05-07T03:37:35;94045.13;;;8.42;78.83
61870;BME280;47810;42.264;23.826;2023-05-07T03:40:00;94042.66;;;8.39;78.47
61870;BME280;47810;42.264;23.826;2023-05-07T03:42:26;94045.28;;;8.39;78.51
61870;BME280;47810;42.264;23.826;2023-05-07T03:44:51;94050.78;;;8.50;78.60
61870;BME280;47810;42.264;23.826;2023-05-07T03:47:17;94044.13;;;8.60;77.92
61870;BME280;47810;42.264;23.826;2023-05-07T03:49:42;94047.94;;;8.71;76.63
61870;BME280;47810;42.264;23.826;2023-05-07T03:52:08;94045.38;;;8.69;76.19
61870;BME280;47810;42.264;23.826;2023-05-07T03:54:33;94048.16;;;8.50;76.90
61870;BME280;47810;42.264;23.826;2023-05-07T03:56:59;94045.69;;;8.47;76.77
61870;BME280;47810;42.264;23.826;2023-05-07T03:59:25;94050.88;;;8.49;77.23
61870;BME280;47810;42.264;23.826;2023-05-07T04:01:50;94049.16;;;8.32;77.87
61870;BME280;47810;42.264;23.826;2023-05-07T04:04:16;94053.09;;;8.23;78.40
61870;BME280;47810;42.264;23.826;2023-05-07T04:06:41;94057.50;;;8.40;78.31
61870;BME280;47810;42.264;23.826;2023-05-07T04:09:07;94056.47;;;8.43;78.71
61870;BME280;47810;42.264;23.826;2023-05-07T04:11:33;94056.47;;;8.43;78.52
61870;BME280;47810;42.264;23.826;2023-05-07T04:13:58;94056.75;;;8.21;79.66
61870;BME280;47810;42.264;23.826;2023-05-07T04:16:24;94056.25;;;8.30;80.00
61870;BME280;47810;42.264;23.826;2023-05-07T04:18:49;94060.91;;;8.42;80.14
61870;BME280;47810;42.264;23.826;2023-05-07T04:21:15;94055.81;;;8.55;79.53
61870;BME280;47810;42.264;23.826;2023-05-07T04:23:41;94059.03;;;8.76;78.66
61870;BME280;47810;42.264;23.826;2023-05-07T04:26:06;94050.56;;;8.86;78.35
61870;BME280;47810;42.264;23.826;2023-05-07T04:28:32;94059.03;;;8.76;79.32
61870;BME280;47810;42.264;23.826;2023-05-07T04:30:59;94066.53;;;8.83;79.10
61870;BME280;47810;42.264;23.826;2023-05-07T04:33:24;94060.00;;;8.91;79.29
61870;BME280;47810;42.264;23.826;2023-05-07T04:35:50;94064.66;;;9.01;79.78
61870;BME280;47810;42.264;23.826;2023-05-07T04:38:15;94059.47;;;9.16;80.81
61870;BME280;47810;42.264;23.826;2023-05-07T04:40:41;94062.75;;;9.35;81.68
61870;BME280;47810;42.264;23.826;2023-05-07T04:43:07;94064.09;;;9.42;81.82
61870;BME280;47810;42.264;23.826;2023-05-07T04:45:34;94060.16;;;9.49;82.68
61870;BME280;47810;42.264;23.826;2023-05-07T04:48:00;94064.41;;;9.52;83.74
61870;BME280;47810;42.264;23.826;2023-05-07T04:50:25;94056.44;;;9.53;84.08
61870;BME280;47810;42.264;23.826;2023-05-07T04:52:51;94063.34;;;9.70;84.15
61870;BME280;47810;42.264;23.826;2023-05-07T04:55:17;94065.69;;;9.75;84.53
61870;BME280;47810;42.264;23.826;2023-05-07T04:57:42;94067.03;;;9.82;83.46
61870;BME280;47810;42.264;23.826;2023-05-07T05:00:08;94064.81;;;9.90;84.34
61870;BME280;47810;42.264;23.826;2023-05-07T05:02:35;94060.66;;;10.00;84.21
61870;BME280;47810;42.264;23.826;2023-05-07T05:05:01;94066.47;;;10.21;84.35
61870;BME280;47810;42.264;23.826;2023-05-07T05:07:34;94069.94;;;10.22;83.20
61870;BME280;47810;42.264;23.826;2023-05-07T05:10:00;94076.56;;;10.29;82.38
61870;BME280;47810;42.264;23.826;2023-05-07T05:12:25;94071.63;;;10.23;82.54
61870;BME280;47810;42.264;23.826;2023-05-07T05:14:51;94081.47;;;10.35;83.60
61870;BME280;47810;42.264;23.826;2023-05-07T05:17:17;94083.25;;;10.49;83.98
61870;BME280;47810;42.264;23.826;2023-05-07T05:19:43;94086.75;;;10.64;84.17
61870;BME280;47810;42.264;23.826;2023-05-07T05:22:08;94075.81;;;10.70;84.22
61870;BME280;47810;42.264;23.826;2023-05-07T05:24:34;94080.72;;;10.76;83.62
61870;BME280;47810;42.264;23.826;2023-05-07T05:26:59;94078.81;;;10.78;83.75
61870;BME280;47810;42.264;23.826;2023-05-07T05:29:26;94073.69;;;11.04;84.76
61870;BME280;47810;42.264;23.826;2023-05-07T05:31:52;94074.19;;;11.23;83.43
61870;BME280;47810;42.264;23.826;2023-05-07T05:34:17;94068.50;;;11.43;81.23
61870;BME280;47810;42.264;23.826;2023-05-07T05:36:45;94073.28;;;11.10;82.69
61870;BME280;47810;42.264;23.826;2023-05-07T05:39:10;94068.06;;;11.23;82.54
61870;BME280;47810;42.264;23.826;2023-05-07T05:41:36;94067.53;;;11.45;82.33
61870;BME280;47810;42.264;23.826;2023-05-07T05:44:02;94077.72;;;11.51;81.37
61870;BME280;47810;42.264;23.826;2023-05-07T05:46:28;94075.16;;;11.22;82.81
61870;BME280;47810;42.264;23.826;2023-05-07T05:48:54;94068.69;;;11.40;82.93
61870;BME280;47810;42.264;23.826;2023-05-07T05:51:20;94070.53;;;11.53;82.69
61870;BME280;47810;42.264;23.826;2023-05-07T05:53:46;94073.50;;;11.61;82.01
61870;BME280;47810;42.264;23.826;2023-05-07T05:56:11;94066.97;;;11.66;80.78
61870;BME280;47810;42.264;23.826;2023-05-07T05:58:37;94069.66;;;11.79;80.06
61870;BME280;47810;42.264;23.826;2023-05-07T06:01:02;94075.28;;;11.87;80.35
61870;BME280;47810;42.264;23.826;2023-05-07T06:03:28;94070.69;;;11.77;80.16
61870;BME280;47810;42.264;23.826;2023-05-07T06:05:54;94068.47;;;11.83;80.12
61870;BME280;47810;42.264;23.826;2023-05-07T06:08:19;94066.88;;;11.81;80.19
61870;BME280;47810;42.264;23.826;2023-05-07T06:10:45;94072.59;;;12.02;80.40
61870;BME280;47810;42.264;23.826;2023-05-07T06:13:10;94060.97;;;12.17;78.78
61870;BME280;47810;42.264;23.826;2023-05-07T06:15:36;94065.09;;;12.34;78.90
61870;BME280;47810;42.264;23.826;2023-05-07T06:18:02;94068.38;;;12.38;78.99
61870;BME280;47810;42.264;23.826;2023-05-07T06:20:27;94066.28;;;12.43;78.03
61870;BME280;47810;42.264;23.826;2023-05-07T06:22:53;94063.06;;;12.63;77.31
61870;BME280;47810;42.264;23.826;2023-05-07T06:25:19;94056.28;;;12.72;77.00
61870;BME280;47810;42.264;23.826;2023-05-07T06:27:44;94059.84;;;12.83;77.56
61870;BME280;47810;42.264;23.826;2023-05-07T06:30:10;94063.41;;;13.08;75.94
61870;BME280;47810;42.264;23.826;2023-05-07T06:32:36;94067.59;;;12.87;75.92
61870;BME280;47810;42.264;23.826;2023-05-07T06:35:01;94059.16;;;13.05;76.27
61870;BME280;47810;42.264;23.826;2023-05-07T06:37:27;94062.31;;;13.23;76.00
61870;BME280;47810;42.264;23.826;2023-05-07T06:39:52;94053.28;;;13.39;75.59
61870;BME280;47810;42.264;23.826;2023-05-07T06:42:18;94056.28;;;13.58;73.90
61870;BME280;47810;42.264;23.826;2023-05-07T06:44:43;94060.94;;;13.31;74.06
61870;BME280;47810;42.264;23.826;2023-05-07T06:47:09;94048.56;;;13.66;73.24
61870;BME280;47810;42.264;23.826;2023-05-07T06:49:34;94048.34;;;13.69;73.06
61870;BME280;47810;42.264;23.826;2023-05-07T06:52:00;94061.22;;;13.87;73.65
61870;BME280;47810;42.264;23.826;2023-05-07T06:54:25;94062.00;;;14.00;73.54
61870;BME280;47810;42.264;23.826;2023-05-07T06:56:51;94059.88;;;14.28;72.34
61870;BME280;47810;42.264;23.826;2023-05-07T06:59:16;94056.78;;;14.45;71.20
61870;BME280;47810;42.264;23.826;2023-05-07T07:01:42;94052.13;;;14.13;71.33
61870;BME280;47810;42.264;23.826;2023-05-07T07:04:07;94055.81;;;14.46;71.53
61870;BME280;47810;42.264;23.826;2023-05-07T07:06:33;94052.13;;;14.71;70.80
61870;BME280;47810;42.264;23.826;2023-05-07T07:08:59;94060.44;;;14.89;69.99
61870;BME280;47810;42.264;23.826;2023-05-07T07:11:25;94057.94;;;14.87;70.37
61870;BME280;47810;42.264;23.826;2023-05-07T07:13:50;94062.88;;;15.03;70.71
61870;BME280;47810;42.264;23.826;2023-05-07T07:16:16;94057.63;;;15.24;69.98
61870;BME280;47810;42.264;23.826;2023-05-07T07:18:42;94054.78;;;15.59;69.79
61870;BME280;47810;42.264;23.826;2023-05-07T07:21:07;94054.28;;;15.77;68.35
61870;BME280;47810;42.264;23.826;2023-05-07T07:23:33;94049.22;;;15.74;66.36
61870;BME280;47810;42.264;23.826;2023-05-07T07:25:58;94046.31;;;15.77;66.19
61870;BME280;47810;42.264;23.826;2023-05-07T07:28:27;94046.97;;;15.90;67.74
61870;BME280;47810;42.264;23.826;2023-05-07T07:30:53;94047.19;;;16.19;67.33
61870;BME280;47810;42.264;23.826;2023-05-07T07:33:18;94049.66;;;16.32;65.74
61870;BME280;47810;42.264;23.826;2023-05-07T07:35:45;94049.19;;;16.69;64.78
61870;BME280;47810;42.264;23.826;2023-05-07T07:38:10;94042.22;;;16.98;61.16
61870;BME280;47810;42.264;23.826;2023-05-07T07:40:36;94041.81;;;17.13;63.03
61870;BME280;47810;42.264;23.826;2023-05-07T07:43:01;94042.72;;;17.33;59.25
61870;BME280;47810;42.264;23.826;2023-05-07T07:45:27;94042.41;;;17.16;58.00
61870;BME280;47810;42.264;23.826;2023-05-07T07:47:52;94039.13;;;17.43;55.96
61870;BME280;47810;42.264;23.826;2023-05-07T07:50:18;94040.84;;;17.64;56.86
61870;BME280;47810;42.264;23.826;2023-05-07T07:52:44;94033.31;;;17.88;56.76
61870;BME280;47810;42.264;23.826;2023-05-07T07:55:09;94033.56;;;18.44;58.04
61870;BME280;47810;42.264;23.826;2023-05-07T07:57:35;94037.19;;;18.62;56.18
61870;BME280;47810;42.264;23.826;2023-05-07T08:00:00;94028.75;;;18.57;53.18
61870;BME280;47810;42.264;23.826;2023-05-07T08:02:26;94038.47;;;19.05;53.97
61870;BME280;47810;42.264;23.826;2023-05-07T08:04:51;94033.00;;;19.34;53.40
61870;BME280;47810;42.264;23.826;2023-05-07T08:07:17;94028.78;;;19.59;53.83
61870;BME280;47810;42.264;23.826;2023-05-07T08:09:45;94037.03;;;19.93;52.79
61870;BME280;47810;42.264;23.826;2023-05-07T08:12:11;94040.34;;;20.23;52.54
61870;BME280;47810;42.264;23.826;2023-05-07T08:14:37;94042.91;;;20.51;51.44
61870;BME280;47810;42.264;23.826;2023-05-07T08:17:03;94044.00;;;20.58;49.66
61870;BME280;47810;42.264;23.826;2023-05-07T08:19:28;94034.44;;;20.81;50.40
61870;BME280;47810;42.264;23.826;2023-05-07T08:21:54;94032.66;;;20.90;48.54
61870;BME280;47810;42.264;23.826;2023-05-07T08:24:20;94033.78;;;21.13;48.51
61870;BME280;47810;42.264;23.826;2023-05-07T08:26:45;94023.53;;;21.43;44.84
61870;BME280;47810;42.264;23.826;2023-05-07T08:29:11;94023.03;;;21.39;45.02
61870;BME280;47810;42.264;23.826;2023-05-07T08:31:37;94024.31;;;21.70;43.79
61870;BME280;47810;42.264;23.826;2023-05-07T08:34:04;94028.94;;;22.10;43.81
61870;BME280;47810;42.264;23.826;2023-05-07T08:36:31;94020.69;;;22.03;40.02
61870;BME280;47810;42.264;23.826;2023-05-07T08:38:57;94017.53;;;22.24;42.13
61870;BME280;47810;42.264;23.826;2023-05-07T08:41:23;94016.72;;;22.40;37.41
61870;BME280;47810;42.264;23.826;2023-05-07T08:43:49;94017.38;;;22.34;37.11
61870;BME280;47810;42.264;23.826;2023-05-07T08:46:17;94017.06;;;22.70;37.47
61870;BME280;47810;42.264;23.826;2023-05-07T08:48:42;94011.81;;;22.85;41.30
61870;BME280;47810;42.264;23.826;2023-05-07T08:51:08;94016.59;;;23.38;40.53
61870;BME280;47810;42.264;23.826;2023-05-07T08:53:34;94021.22;;;23.61;39.45
61870;BME280;47810;42.264;23.826;2023-05-07T08:56:00;94014.38;;;23.50;38.26
61870;BME280;47810;42.264;23.826;2023-05-07T08:58:26;94014.09;;;23.29;35.90
61870;BME280;47810;42.264;23.826;2023-05-07T09:00:51;94019.63;;;23.27;39.59
61870;BME280;47810;42.264;23.826;2023-05-07T09:03:18;94012.88;;;23.39;38.39
61870;BME280;47810;42.264;23.826;2023-05-07T09:05:43;94009.22;;;23.24;36.37
61870;BME280;47810;42.264;23.826;2023-05-07T09:08:09;94016.16;;;23.10;39.81
61870;BME280;47810;42.264;23.826;2023-05-07T09:10:35;94005.44;;;23.02;40.78
61870;BME280;47810;42.264;23.826;2023-05-07T09:13:02;94005.22;;;23.12;38.32
61870;BME280;47810;42.264;23.826;2023-05-07T09:15:28;94010.56;;;23.28;40.85
61870;BME280;47810;42.264;23.826;2023-05-07T09:17:53;94009.75;;;23.59;39.59
61870;BME280;47810;42.264;23.826;2023-05-07T09:20:19;94013.78;;;24.02;37.07
61870;BME280;47810;42.264;23.826;2023-05-07T09:22:44;94008.50;;;24.09;37.54
61870;BME280;47810;42.264;23.826;2023-05-07T09:25:10;94011.66;;;24.21;35.16
61870;BME280;47810;42.264;23.826;2023-05-07T09:27:36;94012.16;;;23.93;33.93
61870;BME280;47810;42.264;23.826;2023-05-07T09:30:05;94005.84;;;24.01;34.36
61870;BME280;47810;42.264;23.826;2023-05-07T09:32:34;94006.75;;;24.39;36.30
61870;BME280;47810;42.264;23.826;2023-05-07T09:34:59;93996.06;;;24.92;37.28
61870;BME280;47810;42.264;23.826;2023-05-07T09:37:25;93992.84;;;25.41;37.77
61870;BME280;47810;42.264;23.826;2023-05-07T09:39:51;93992.84;;;25.41;34.74
61870;BME280;47810;42.264;23.826;2023-05-07T09:42:22;93986.69;;;25.47;35.54
61870;BME280;47810;42.264;23.826;2023-05-07T09:44:47;93981.06;;;25.63;36.04
61870;BME280;47810;42.264;23.826;2023-05-07T09:47:14;93977.03;;;25.74;34.52
61870;BME280;47810;42.264;23.826;2023-05-07T09:49:43;93977.81;;;25.83;35.28
61870;BME280;47810;42.264;23.826;2023-05-07T09:52:13;93978.09;;;25.88;35.15
61870;BME280;47810;42.264;23.826;2023-05-07T09:54:40;93977.41;;;25.86;37.51
61870;BME280;47810;42.264;23.826;2023-05-07T09:57:05;93967.41;;;26.01;35.73
61870;BME280;47810;42.264;23.826;2023-05-07T09:59:32;93972.06;;;25.77;36.29
61870;BME280;47810;42.264;23.826;2023-05-07T10:01:58;93969.97;;;25.88;35.29
61870;BME280;47810;42.264;23.826;2023-05-07T10:04:27;93961.22;;;26.07;34.63
61870;BME280;47810;42.264;23.826;2023-05-07T10:06:53;93961.47;;;26.12;34.97
61870;BME280;47810;42.264;23.826;2023-05-07T10:09:21;93971.41;;;26.27;33.04
61870;BME280;47810;42.264;23.826;2023-05-07T10:11:48;93957.38;;;26.16;34.35
61870;BME280;47810;42.264;23.826;2023-05-07T10:14:14;93959.94;;;26.24;33.81
61870;BME280;47810;42.264;23.826;2023-05-07T10:16:39;93966.91;;;26.34;33.34
61870;BME280;47810;42.264;23.826;2023-05-07T10:19:06;93968.72;;;26.27;32.39
61870;BME280;47810;42.264;23.826;2023-05-07T10:21:34;93959.44;;;26.36;33.45
61870;BME280;47810;42.264;23.826;2023-05-07T10:24:10;93955.63;;;26.52;33.92
61870;BME280;47810;42.264;23.826;2023-05-07T10:26:40;93960.41;;;26.50;32.32
61870;BME280;47810;42.264;23.826;2023-05-07T10:29:12;93966.38;;;26.66;34.87
61870;BME280;47810;42.264;23.826;2023-05-07T10:31:52;93966.97;;;26.62;32.16
61870;BME280;47810;42.264;23.826;2023-05-07T10:34:21;93961.22;;;26.29;32.34
61870;BME280;47810;42.264;23.826;2023-05-07T10:36:48;93966.94;;;26.55;32.50
61870;BME280;47810;42.264;23.826;2023-05-07T10:39:15;93964.31;;;26.25;34.60
61870;BME280;47810;42.264;23.826;2023-05-07T10:41:41;93965.06;;;25.98;31.25
61870;BME280;47810;42.264;23.826;2023-05-07T10:44:06;93958.88;;;26.25;32.58
61870;BME280;47810;42.264;23.826;2023-05-07T10:46:32;93955.22;;;26.76;33.45
61870;BME280;47810;42.264;23.826;2023-05-07T10:51:26;93944.72;;;27.23;30.09
61870;BME280;47810;42.264;23.826;2023-05-07T10:56:38;93942.25;;;26.71;30.85
61870;BME280;47810;42.264;23.826;2023-05-07T11:01:59;93932.88;;;27.02;31.78
61870;BME280;47810;42.264;23.826;2023-05-07T11:04:27;93923.97;;;26.31;31.82
61870;BME280;47810;42.264;23.826;2023-05-07T11:12:17;93945.16;;;26.70;32.39
61870;BME280;47810;42.264;23.826;2023-05-07T11:14:43;93939.59;;;27.06;30.72
61870;BME280;47810;42.264;23.826;2023-05-07T11:17:10;93945.28;;;26.90;30.93
61870;BME280;47810;42.264;23.826;2023-05-07T11:19:51;93943.09;;;26.72;32.00
61870;BME280;47810;42.264;23.826;2023-05-07T11:25:04;93940.97;;;26.24;32.30
61870;BME280;47810;42.264;23.826;2023-05-07T11:27:31;93938.41;;;25.44;33.54
61870;BME280;47810;42.264;23.826;2023-05-07T11:29:56;93936.56;;;25.81;33.57
61870;BME280;47810;42.264;23.826;2023-05-07T11:32:22;93939.44;;;26.37;32.43
61870;BME280;47810;42.264;23.826;2023-05-07T11:34:51;93940.22;;;26.52;30.43
61870;BME280;47810;42.264;23.826;2023-05-07T11:37:18;93941.34;;;26.64;31.68
61870;BME280;47810;42.264;23.826;2023-05-07T11:39:44;93945.28;;;26.90;33.32
61870;BME280;47810;42.264;23.826;2023-05-07T11:42:25;93951.16;;;27.22;31.59
61870;BME280;47810;42.264;23.826;2023-05-07T11:44:51;93953.22;;;27.54;30.85
61870;BME280;47810;42.264;23.826;2023-05-07T11:47:19;93940.34;;;27.70;31.73
61870;BME280;47810;42.264;23.826;2023-05-07T11:49:48;93935.91;;;28.03;30.40
61870;BME280;47810;42.264;23.826;2023-05-07T11:52:14;93940.72;;;28.15;29.39
61870;BME280;47810;42.264;23.826;2023-05-07T11:54:40;93935.91;;;28.10;31.52
61870;BME280;47810;42.264;23.826;2023-05-07T11:57:06;93931.75;;;28.21;29.71
61870;BME280;47810;42.264;23.826;2023-05-07T11:59:41;93925.69;;;27.57;29.21
61870;BME280;47810;42.264;23.826;2023-05-07T12:02:09;93925.22;;;27.47;31.13
61870;BME280;47810;42.264;23.826;2023-05-07T12:04:35;93924.25;;;27.61;29.45
61870;BME280;47810;42.264;23.826;2023-05-07T12:07:00;93925.88;;;27.49;29.82
61870;BME280;47810;42.264;23.826;2023-05-07T12:09:26;93925.47;;;28.00;31.39
61870;BME280;47810;42.264;23.826;2023-05-07T12:11:52;93923.53;;;27.39;31.41
61870;BME280;47810;42.264;23.826;2023-05-07T12:14:18;93914.50;;;27.26;32.04
61870;BME280;47810;42.264;23.826;2023-05-07T12:16:43;93925.00;;;27.07;31.20
61870;BME280;47810;42.264;23.826;2023-05-07T12:19:10;93920.28;;;26.88;32.78
61870;BME280;47810;42.264;23.826;2023-05-07T12:21:38;93925.00;;;26.51;32.38
61870;BME280;47810;42.264;23.826;2023-05-07T12:24:03;93913.13;;;26.31;30.85
61870;BME280;47810;42.264;23.826;2023-05-07T12:26:29;93913.03;;;26.39;32.52
61870;BME280;47810;42.264;23.826;2023-05-07T12:28:55;93917.09;;;26.78;31.71
61870;BME280;47810;42.264;23.826;2023-05-07T12:31:22;93914.38;;;26.78;31.88
61870;BME280;47810;42.264;23.826;2023-05-07T12:33:48;93911.22;;;27.09;31.51
61870;BME280;47810;42.264;23.826;2023-05-07T12:36:13;93909.81;;;27.54;30.83
61870;BME280;47810;42.264;23.826;2023-05-07T12:38:39;93907.84;;;27.83;30.35
61870;BME280;47810;42.264;23.826;2023-05-07T12:41:09;93908.34;;;28.13;30.41
61870;BME280;47810;42.264;23.826;2023-05-07T12:43:35;93897.06;;;28.03;30.87
61870;BME280;47810;42.264;23.826;2023-05-07T12:46:03;93900.22;;;28.13;30.75
61870;BME280;47810;42.264;23.826;2023-05-07T12:48:29;93893.28;;;27.97;30.26
61870;BME280;47810;42.264;23.826;2023-05-07T12:50:55;93893.81;;;27.73;30.22
61870;BME280;47810;42.264;23.826;2023-05-07T12:53:22;93889.25;;;27.80;30.21
61870;BME280;47810;42.264;23.826;2023-05-07T12:55:48;93884.06;;;27.78;30.72
61870;BME280;47810;42.264;23.826;2023-05-07T12:58:30;93876.94;;;27.71;30.08
61870;BME280;47810;42.264;23.826;2023-05-07T13:00:59;93879.84;;;27.76;31.13
61870;BME280;47810;42.264;23.826;2023-05-07T13:03:32;93879.28;;;27.87;30.06